Terminal Aerodrome Forecast
Issued by NWS

Home | Current Version | Previous Version | Text Only | Print | Product List | Glossary On
Versions: 1 2 3 4 5 6 7 8 9 10 11 12 13 14 15 16 17 18 19
000
FTUS46 KLOX 250500
TAFSBP
TAF
KSBP 250522Z 2506/2606 34007KT P6SM SCT006
     FM250900 VRB03KT P6SM OVC006
     FM251200 30006KT P6SM OVC012
     FM251600 32008KT P6SM BKN100 BKN200
     FM252100 30015KT P6SM VCSH SCT040 OVC080
      TEMPO 2521/2524 6SM -SHRA BKN040
     FM260000 31012KT P6SM -SHRA OVC040
     FM260500 31010KT P6SM BKN050=

USA.gov is the U.S. government's official web portal to all federal, state and local government web resources and services.